Time;durP1;ratioP1;P1;durP2;ratioP2;P2;SDS_P1;SDS_P2;PMS_P1;PMS_P2;Temp;Humidity;BMP_temperature;BMP_pressure;BME280_temperature;BME280_humidity;BME280_pressure;Samples;Min_cycle;Max_cycle;Signal;HPM_P1;HPM_P2
2022/09/12 00:01:34;;;;;;;;;;;12.80;99.90;;;;;;5105047;27;19961;-54
2022/09/12 00:04:13;;;;;;;;;;;12.80;99.90;;;;;;5104708;27;19912;-54
2022/09/12 00:06:54;;;;;;;;;;;12.90;99.90;;;;;;5104503;27;19916;-54
2022/09/12 00:09:33;;;;;;;;;;;12.90;99.90;;;;;;5104144;27;19926;-54
2022/09/12 00:12:13;;;;;;;;;;;12.90;99.90;;;;;;5105175;27;19912;-53
2022/09/12 00:14:53;;;;;;;;;;;13.00;99.90;;;;;;5084518;28;19912;-53
2022/09/12 00:17:35;;;;;;;;;;;13.00;99.90;;;;;;5095665;27;19924;-54
2022/09/12 00:20:16;;;;;;;;;;;13.00;99.90;;;;;;5062136;28;20283;-55
2022/09/12 00:22:56;;;;;;;;;;;13.00;99.90;;;;;;5103897;27;19934;-54
2022/09/12 00:25:40;;;;;;;;;;;12.90;99.90;;;;;;5100206;27;19930;-54
2022/09/12 00:28:20;;;;;;;;;;;12.80;99.90;;;;;;5105104;27;19954;-53
2022/09/12 00:31:00;;;;;;;;;;;12.60;99.90;;;;;;5104132;27;19950;-53
2022/09/12 00:33:40;;;;;;;;;;;12.50;99.90;;;;;;5104655;27;20319;-54
2022/09/12 00:36:21;;;;;;;;;;;12.40;99.90;;;;;;5094833;27;19927;-55
2022/09/12 00:39:01;;;;;;;;;;;12.30;99.90;;;;;;5104009;27;19946;-53
2022/09/12 00:41:41;;;;;;;;;;;12.20;99.90;;;;;;5125501;27;20292;-54
2022/09/12 00:44:38;;;;;;;;;;;12.10;99.90;;;;;;5104625;27;20591;-54
2022/09/12 00:47:20;;;;;;;;;;;12.00;99.90;;;;;;5104248;27;19912;-54
2022/09/12 00:50:05;;;;;;;;;;;11.90;99.90;;;;;;5104200;27;19912;-54
2022/09/12 00:52:46;;;;;;;;;;;11.80;99.90;;;;;;5104405;27;19916;-53
2022/09/12 00:55:27;;;;;;;;;;;11.60;99.90;;;;;;5100574;27;19961;-54
2022/09/12 00:58:10;;;;;;;;;;;11.50;99.90;;;;;;5103681;27;19927;-56
2022/09/12 01:00:50;;;;;;;;;;;11.40;99.90;;;;;;5103212;27;19930;-54
2022/09/12 01:03:30;;;;;;;;;;;11.30;99.90;;;;;;5101832;27;19966;-54
2022/09/12 01:06:14;;;;;;;;;;;11.10;99.90;;;;;;5116011;27;20013;-54
2022/09/12 01:08:55;;;;;;;;;;;11.20;99.90;;;;;;5103528;27;20332;-54
2022/09/12 01:11:37;;;;;;;;;;;11.20;99.90;;;;;;5124941;27;19918;-54
2022/09/12 01:14:19;;;;;;;;;;;11.20;99.90;;;;;;5104971;27;19930;-54
2022/09/12 01:16:58;;;;;;;;;;;11.20;99.90;;;;;;5083901;28;19916;-55
2022/09/12 01:19:48;;;;;;;;;;;11.20;99.90;;;;;;5083609;28;20278;-54
2022/09/12 01:22:36;;;;;;;;;;;11.20;99.90;;;;;;5084104;28;19913;-54
2022/09/12 01:25:20;;;;;;;;;;;11.40;99.90;;;;;;5103353;27;19926;-54
2022/09/12 01:28:20;;;;;;;;;;;11.40;99.90;;;;;;5104480;27;19953;-53
2022/09/12 01:31:03;;;;;;;;;;;11.50;99.90;;;;;;5104099;27;19946;-54
2022/09/12 01:34:05;;;;;;;;;;;11.40;99.90;;;;;;5104990;27;19946;-53
2022/09/12 01:36:50;;;;;;;;;;;11.40;99.90;;;;;;5111695;27;19918;-53
2022/09/12 01:39:35;;;;;;;;;;;11.40;99.90;;;;;;5101967;27;20422;-54
2022/09/12 01:42:19;;;;;;;;;;;11.60;99.90;;;;;;5081650;28;19913;-54
2022/09/12 01:45:13;;;;;;;;;;;11.70;99.90;;;;;;5084681;28;19917;-54
2022/09/12 01:47:56;;;;;;;;;;;11.80;99.90;;;;;;5084146;28;19912;-54
2022/09/12 01:50:40;;;;;;;;;;;11.90;99.90;;;;;;5104147;27;19926;-54
2022/09/12 01:53:22;;;;;;;;;;;11.90;99.90;;;;;;5105162;27;19926;-53
2022/09/12 01:56:03;;;;;;;;;;;11.90;99.90;;;;;;5084523;28;19913;-53
2022/09/12 01:58:45;;;;;;;;;;;11.90;99.90;;;;;;5104247;27;19957;-54
2022/09/12 02:01:28;;;;;;;;;;;11.80;99.90;;;;;;5104639;27;19953;-54
2022/09/12 02:04:10;;;;;;;;;;;11.70;99.90;;;;;;5104171;27;19926;-55
2022/09/12 02:06:54;;;;;;;;;;;11.70;99.90;;;;;;5145866;27;19911;-54
2022/09/12 02:09:36;;;;;;;;;;;11.70;99.90;;;;;;5104062;27;20434;-54
2022/09/12 02:12:19;;;;;;;;;;;11.70;99.90;;;;;;5084551;28;20427;-54
2022/09/12 02:15:01;;;;;;;;;;;11.60;99.90;;;;;;5146310;27;19918;-54
2022/09/12 02:17:42;;;;;;;;;;;11.60;99.90;;;;;;5104558;27;19923;-54
2022/09/12 02:20:26;;;;;;;;;;;11.60;99.90;;;;;;5104143;27;20431;-54
2022/09/12 02:23:08;;;;;;;;;;;11.60;99.90;;;;;;5104748;27;20319;-54
2022/09/12 02:25:52;;;;;;;;;;;11.60;99.90;;;;;;5099345;27;20316;-59
2022/09/12 02:28:34;;;;;;;;;;;11.50;99.90;;;;;;5084614;28;19913;-53
2022/09/12 02:31:20;;;;;;;;;;;11.50;99.90;;;;;;5105135;27;19945;-54
2022/09/12 02:34:07;;;;;;;;;;;11.50;99.90;;;;;;5125734;27;19915;-54
2022/09/12 02:36:50;;;;;;;;;;;11.50;99.90;;;;;;5104694;27;20206;-54
2022/09/12 02:39:32;;;;;;;;;;;11.50;99.90;;;;;;5124619;27;19916;-53
2022/09/12 02:42:12;;;;;;;;;;;11.40;99.90;;;;;;5104916;27;19927;-55
2022/09/12 02:44:52;;;;;;;;;;;11.50;99.90;;;;;;5105357;27;19969;-54
2022/09/12 02:47:36;;;;;;;;;;;11.50;99.90;;;;;;5103842;27;19926;-54
2022/09/12 02:50:16;;;;;;;;;;;11.50;99.90;;;;;;5104005;27;20138;-54
2022/09/12 02:52:58;;;;;;;;;;;11.50;99.90;;;;;;5084763;28;19912;-54
2022/09/12 02:55:39;;;;;;;;;;;11.40;99.90;;;;;;5120632;27;19912;-53
2022/09/12 02:58:22;;;;;;;;;;;11.40;99.90;;;;;;5103795;27;20463;-53
2022/09/12 03:01:08;;;;;;;;;;;11.30;99.90;;;;;;5124559;27;20377;-53
2022/09/12 03:03:58;;;;;;;;;;;11.30;99.90;;;;;;5093583;27;19957;-54
2022/09/12 03:06:45;;;;;;;;;;;11.30;99.90;;;;;;5102514;27;19927;-54
2022/09/12 03:09:30;;;;;;;;;;;11.20;99.90;;;;;;5075233;28;19916;-54
2022/09/12 03:12:15;;;;;;;;;;;11.20;99.90;;;;;;5102972;27;20352;-54
2022/09/12 03:15:02;;;;;;;;;;;11.20;99.90;;;;;;5103703;27;19920;-53
2022/09/12 03:17:47;;;;;;;;;;;11.10;99.90;;;;;;5099795;27;19966;-54
2022/09/12 03:20:33;;;;;;;;;;;11.10;99.90;;;;;;5103337;27;19912;-54
2022/09/12 03:23:18;;;;;;;;;;;11.20;99.90;;;;;;5104754;27;19926;-54
2022/09/12 03:26:01;;;;;;;;;;;11.20;99.90;;;;;;5098645;27;19954;-54
2022/09/12 03:28:42;;;;;;;;;;;11.20;99.90;;;;;;5105440;27;19945;-54
2022/09/12 03:31:22;;;;;;;;;;;11.10;99.90;;;;;;5105674;27;19926;-54
2022/09/12 03:34:02;;;;;;;;;;;11.20;99.90;;;;;;5125634;27;19922;-56
2022/09/12 03:36:42;;;;;;;;;;;11.20;99.90;;;;;;5092111;27;19946;-53
2022/09/12 03:39:23;;;;;;;;;;;11.20;99.90;;;;;;5105209;27;19969;-55
2022/09/12 03:42:03;;;;;;;;;;;11.20;99.90;;;;;;5103446;27;19926;-54
2022/09/12 03:44:43;;;;;;;;;;;11.20;99.90;;;;;;5124334;27;19911;-54
2022/09/12 03:47:23;;;;;;;;;;;11.20;99.90;;;;;;5109038;27;19946;-53
2022/09/12 03:50:02;;;;;;;;;;;11.10;99.90;;;;;;5102004;27;20323;-53
2022/09/12 03:52:42;;;;;;;;;;;11.10;99.90;;;;;;5083943;28;19912;-53
2022/09/12 03:55:22;;;;;;;;;;;11.10;99.90;;;;;;5103098;27;19926;-53
2022/09/12 03:58:02;;;;;;;;;;;11.20;99.90;;;;;;5105104;27;19926;-54
2022/09/12 04:00:43;;;;;;;;;;;11.20;99.90;;;;;;5106260;27;19953;-54
2022/09/12 04:03:25;;;;;;;;;;;11.20;99.90;;;;;;5106273;27;19950;-54
2022/09/12 04:06:05;;;;;;;;;;;11.20;99.90;;;;;;5098924;27;20130;-54
2022/09/12 04:08:47;;;;;;;;;;;11.20;99.90;;;;;;5126646;27;20462;-54
2022/09/12 04:11:27;;;;;;;;;;;11.20;99.90;;;;;;5106606;27;20328;-54
2022/09/12 04:14:07;;;;;;;;;;;11.20;99.90;;;;;;5106488;27;19926;-54
2022/09/12 04:16:47;;;;;;;;;;;11.10;99.90;;;;;;5086611;28;19956;-53
2022/09/12 04:19:27;;;;;;;;;;;11.10;99.90;;;;;;5105832;27;19926;-54
2022/09/12 04:22:07;;;;;;;;;;;11.10;99.90;;;;;;5086200;28;19912;-54
2022/09/12 04:24:47;;;;;;;;;;;11.10;99.90;;;;;;5105946;27;20475;-54
2022/09/12 04:27:26;;;;;;;;;;;11.10;99.90;;;;;;5106054;27;19946;-54
2022/09/12 04:30:07;;;;;;;;;;;11.00;99.90;;;;;;5105917;27;19912;-54
2022/09/12 04:32:48;;;;;;;;;;;11.10;99.90;;;;;;5085897;28;20279;-54
2022/09/12 04:35:27;;;;;;;;;;;11.10;99.90;;;;;;5103340;27;20335;-54
2022/09/12 04:38:07;;;;;;;;;;;11.00;99.90;;;;;;5106597;27;19912;-54
2022/09/12 04:40:47;;;;;;;;;;;11.00;99.90;;;;;;5105946;27;19926;-54
2022/09/12 04:43:27;;;;;;;;;;;11.10;99.90;;;;;;5102739;27;19927;-54
2022/09/12 04:46:07;;;;;;;;;;;11.10;99.90;;;;;;5105256;27;19945;-54
2022/09/12 04:48:49;;;;;;;;;;;11.10;99.90;;;;;;5104796;27;19930;-53
2022/09/12 04:51:29;;;;;;;;;;;11.10;99.90;;;;;;5105023;27;19926;-54
2022/09/12 04:54:12;;;;;;;;;;;11.10;99.90;;;;;;5105353;27;20479;-53
2022/09/12 04:56:53;;;;;;;;;;;11.10;99.90;;;;;;5102120;27;20344;-54
2022/09/12 04:59:34;;;;;;;;;;;11.10;99.90;;;;;;5125431;27;19912;-54
2022/09/12 05:02:14;;;;;;;;;;;11.10;99.90;;;;;;5084631;28;19916;-54
2022/09/12 05:04:54;;;;;;;;;;;11.10;99.90;;;;;;5104873;27;19965;-54
2022/09/12 05:07:33;;;;;;;;;;;11.10;99.90;;;;;;5104964;27;20370;-53
2022/09/12 05:10:14;;;;;;;;;;;11.20;99.90;;;;;;5105081;27;19912;-54
2022/09/12 05:12:55;;;;;;;;;;;11.20;99.90;;;;;;5146490;27;19968;-54
2022/09/12 05:15:34;;;;;;;;;;;11.30;99.90;;;;;;5106099;27;19912;-54
2022/09/12 05:18:14;;;;;;;;;;;11.30;99.90;;;;;;5105586;27;19912;-54
2022/09/12 05:20:54;;;;;;;;;;;11.40;99.90;;;;;;5106475;27;19926;-53
2022/09/12 05:23:34;;;;;;;;;;;11.40;99.90;;;;;;5104893;27;19957;-54
2022/09/12 05:26:15;;;;;;;;;;;11.50;99.90;;;;;;5097145;27;20214;-53
2022/09/12 05:28:55;;;;;;;;;;;11.50;99.90;;;;;;5105831;27;19926;-54
2022/09/12 05:31:36;;;;;;;;;;;11.60;99.90;;;;;;5106115;27;19926;-54
2022/09/12 05:34:16;;;;;;;;;;;11.60;99.90;;;;;;5105994;27;19926;-54
2022/09/12 05:36:57;;;;;;;;;;;11.60;99.90;;;;;;5095465;27;19926;-53
2022/09/12 05:39:36;;;;;;;;;;;11.60;99.90;;;;;;5105397;27;20137;-54
2022/09/12 05:42:16;;;;;;;;;;;11.70;99.90;;;;;;5105968;27;19920;-54
2022/09/12 05:44:56;;;;;;;;;;;11.80;99.90;;;;;;5105592;27;19973;-54
2022/09/12 05:47:36;;;;;;;;;;;11.90;99.90;;;;;;5086061;28;20363;-54
2022/09/12 05:50:15;;;;;;;;;;;12.00;99.90;;;;;;5102756;27;19926;-53
2022/09/12 05:52:56;;;;;;;;;;;12.10;99.90;;;;;;5085426;28;19912;-53
2022/09/12 05:55:37;;;;;;;;;;;12.10;99.90;;;;;;5102174;27;20455;-54
2022/09/12 05:58:16;;;;;;;;;;;12.20;99.90;;;;;;5086268;28;19912;-54
2022/09/12 06:01:01;;;;;;;;;;;12.20;99.90;;;;;;5106604;27;19912;-53
2022/09/12 06:03:42;;;;;;;;;;;12.30;99.90;;;;;;5085654;28;19913;-53
2022/09/12 06:06:23;;;;;;;;;;;12.30;99.90;;;;;;5096274;27;19913;-54
2022/09/12 06:09:04;;;;;;;;;;;12.40;99.90;;;;;;5106019;27;19912;-55
2022/09/12 06:11:44;;;;;;;;;;;12.50;99.90;;;;;;5106115;27;20320;-53
2022/09/12 06:14:24;;;;;;;;;;;12.60;99.90;;;;;;5086155;27;20277;-54
2022/09/12 06:17:04;;;;;;;;;;;12.70;99.90;;;;;;5106152;27;19912;-53
2022/09/12 06:19:44;;;;;;;;;;;12.80;99.90;;;;;;5079034;28;19917;-53
2022/09/12 06:22:25;;;;;;;;;;;12.90;99.90;;;;;;5096773;27;20427;-54
2022/09/12 06:25:05;;;;;;;;;;;13.00;99.90;;;;;;5085935;28;19912;-53
2022/09/12 06:27:45;;;;;;;;;;;13.10;99.90;;;;;;5084310;28;19912;-53
2022/09/12 06:30:26;;;;;;;;;;;13.10;99.90;;;;;;5096375;27;20320;-54
2022/09/12 06:33:07;;;;;;;;;;;13.10;99.90;;;;;;5106780;27;19926;-53
2022/09/12 06:35:47;;;;;;;;;;;13.20;99.90;;;;;;5126543;27;19916;-55
2022/09/12 06:38:27;;;;;;;;;;;13.30;99.90;;;;;;5085942;28;20366;-55
2022/09/12 06:41:08;;;;;;;;;;;13.50;99.90;;;;;;5105837;27;19928;-53
2022/09/12 06:43:48;;;;;;;;;;;13.70;99.90;;;;;;5086089;28;20205;-55
2022/09/12 06:46:28;;;;;;;;;;;13.90;99.90;;;;;;5106025;27;20048;-53
2022/09/12 06:49:08;;;;;;;;;;;14.00;99.90;;;;;;5106104;27;20430;-53
2022/09/12 06:51:48;;;;;;;;;;;14.10;99.90;;;;;;5126908;27;19919;-53
2022/09/12 06:54:27;;;;;;;;;;;14.20;99.90;;;;;;5106594;27;19926;-53
2022/09/12 06:57:07;;;;;;;;;;;14.30;99.90;;;;;;5087643;27;19954;-53
2022/09/12 06:59:47;;;;;;;;;;;14.50;99.90;;;;;;5105505;27;19973;-53
2022/09/12 07:02:27;;;;;;;;;;;14.80;99.90;;;;;;5106309;27;20365;-53
2022/09/12 07:05:07;;;;;;;;;;;14.90;99.90;;;;;;5087967;27;20328;-53
2022/09/12 07:07:48;;;;;;;;;;;15.00;99.90;;;;;;5117323;27;19920;-53
2022/09/12 07:10:29;;;;;;;;;;;15.10;99.90;;;;;;5126203;27;19912;-53
2022/09/12 07:13:09;;;;;;;;;;;15.30;99.90;;;;;;5126447;27;19925;-55
2022/09/12 07:15:50;;;;;;;;;;;15.40;99.90;;;;;;5119526;27;19912;-54
2022/09/12 07:18:31;;;;;;;;;;;15.40;99.90;;;;;;5122285;27;19918;-55
2022/09/12 07:21:11;;;;;;;;;;;15.30;99.90;;;;;;5105067;27;19926;-53
2022/09/12 07:23:54;;;;;;;;;;;15.30;99.90;;;;;;5106386;27;19916;-53
2022/09/12 07:26:33;;;;;;;;;;;15.10;99.90;;;;;;5094458;27;19927;-53
2022/09/12 07:29:15;;;;;;;;;;;15.20;99.90;;;;;;5106001;27;19954;-53
2022/09/12 07:31:56;;;;;;;;;;;15.50;99.90;;;;;;5127534;27;19918;-53
2022/09/12 07:34:36;;;;;;;;;;;15.90;99.90;;;;;;5106164;27;19926;-55
2022/09/12 07:37:16;;;;;;;;;;;16.40;99.90;;;;;;5074664;28;20435;-55
2022/09/12 07:39:56;;;;;;;;;;;16.60;99.90;;;;;;5124752;27;20377;-53
2022/09/12 07:42:35;;;;;;;;;;;16.70;99.90;;;;;;5124705;27;19926;-53
2022/09/12 07:45:15;;;;;;;;;;;16.90;99.90;;;;;;5094266;27;20166;-53
2022/09/12 07:47:55;;;;;;;;;;;17.00;99.90;;;;;;5106066;27;19912;-53
2022/09/12 07:50:36;;;;;;;;;;;17.10;99.90;;;;;;5108376;27;20323;-54
2022/09/12 07:53:16;;;;;;;;;;;17.10;99.90;;;;;;5106132;27;19926;-53
2022/09/12 07:55:56;;;;;;;;;;;17.30;99.90;;;;;;5098389;27;19950;-55
2022/09/12 07:58:37;;;;;;;;;;;17.40;99.90;;;;;;5106471;27;20316;-53
2022/09/12 08:01:18;;;;;;;;;;;17.30;99.90;;;;;;5106162;27;19930;-52
2022/09/12 08:04:00;;;;;;;;;;;17.20;99.90;;;;;;5086129;28;20374;-55
2022/09/12 08:06:40;;;;;;;;;;;16.70;99.90;;;;;;5093038;27;19950;-53
2022/09/12 08:09:20;;;;;;;;;;;16.70;99.90;;;;;;5106485;27;19946;-53
2022/09/12 08:12:00;;;;;;;;;;;17.10;99.90;;;;;;5106155;27;20315;-55
2022/09/12 08:14:40;;;;;;;;;;;17.40;99.90;;;;;;5106409;27;19926;-53
2022/09/12 08:17:20;;;;;;;;;;;17.50;99.90;;;;;;5106217;27;19926;-55
2022/09/12 08:19:59;;;;;;;;;;;17.60;99.90;;;;;;5125308;27;19912;-53
2022/09/12 08:22:39;;;;;;;;;;;17.60;99.90;;;;;;5105710;27;19954;-53
2022/09/12 08:25:19;;;;;;;;;;;17.70;99.90;;;;;;5105904;27;19961;-53
2022/09/12 08:28:00;;;;;;;;;;;18.10;99.90;;;;;;5107095;27;20427;-53
2022/09/12 08:30:40;;;;;;;;;;;18.20;99.90;;;;;;5106412;27;19954;-55
2022/09/12 08:33:21;;;;;;;;;;;18.30;99.90;;;;;;5106446;27;19946;-53
2022/09/12 08:36:04;;;;;;;;;;;18.50;99.90;;;;;;5098956;27;20340;-55
2022/09/12 08:38:46;;;;;;;;;;;18.60;99.90;;;;;;5106149;27;19926;-53
2022/09/12 08:41:29;;;;;;;;;;;18.90;99.90;;;;;;5106538;27;19969;-53
2022/09/12 08:44:15;;;;;;;;;;;19.00;99.90;;;;;;5106611;27;19958;-53
2022/09/12 08:47:21;;;;;;;;;;;19.20;99.90;;;;;;5106270;27;20382;-53
2022/09/12 08:50:12;;;;;;;;;;;19.10;99.90;;;;;;5106143;27;20300;-53
2022/09/12 08:52:54;;;;;;;;;;;19.40;99.90;;;;;;5106152;27;19927;-53
2022/09/12 08:55:36;;;;;;;;;;;19.80;99.90;;;;;;5102586;27;19927;-54
2022/09/12 08:58:19;;;;;;;;;;;20.10;99.90;;;;;;5147926;27;19968;-53
2022/09/12 09:01:01;;;;;;;;;;;19.80;99.90;;;;;;5106816;27;19961;-53
2022/09/12 09:03:58;;;;;;;;;;;19.70;99.90;;;;;;5106380;27;19926;-53
2022/09/12 09:06:50;;;;;;;;;;;20.00;99.90;;;;;;5093764;27;19954;-53
2022/09/12 09:09:36;;;;;;;;;;;20.10;99.90;;;;;;5105818;27;19985;-53
2022/09/12 09:12:18;;;;;;;;;;;20.00;99.90;;;;;;5106148;27;19926;-53
2022/09/12 09:15:12;;;;;;;;;;;20.30;99.90;;;;;;5106496;27;19926;-53
2022/09/12 09:17:54;;;;;;;;;;;20.50;99.90;;;;;;5106521;27;19953;-53
2022/09/12 09:20:36;;;;;;;;;;;20.30;99.90;;;;;;5084738;28;19916;-53
2022/09/12 09:23:19;;;;;;;;;;;20.10;99.90;;;;;;5105554;27;19946;-53
2022/09/12 09:26:06;;;;;;;;;;;20.10;99.90;;;;;;5085622;28;19916;-54
2022/09/12 09:28:48;;;;;;;;;;;20.00;99.90;;;;;;5105844;27;19945;-53
2022/09/12 09:31:30;;;;;;;;;;;19.90;99.90;;;;;;5106135;27;20262;-54
2022/09/12 09:34:13;;;;;;;;;;;19.90;99.90;;;;;;5106016;27;19926;-53
2022/09/12 09:36:58;;;;;;;;;;;20.10;99.90;;;;;;5106725;27;19945;-53
2022/09/12 09:39:46;;;;;;;;;;;20.40;99.90;;;;;;5105780;27;19912;-53
2022/09/12 09:42:31;;;;;;;;;;;20.10;99.90;;;;;;5106292;27;19953;-53
2022/09/12 09:45:15;;;;;;;;;;;19.60;99.90;;;;;;5126506;27;20405;-53
2022/09/12 09:47:57;;;;;;;;;;;19.00;99.90;;;;;;5105619;27;19926;-55
2022/09/12 09:50:38;;;;;;;;;;;18.40;99.90;;;;;;5085121;28;19916;-52
2022/09/12 09:53:31;;;;;;;;;;;17.90;99.90;;;;;;5107063;27;19926;-53
2022/09/12 09:56:14;;;;;;;;;;;17.50;99.90;;;;;;5097325;27;19927;-53
2022/09/12 09:58:54;;;;;;;;;;;17.30;99.90;;;;;;5086208;28;19927;-53
2022/09/12 10:01:34;;;;;;;;;;;17.30;99.90;;;;;;5086294;28;19912;-53
2022/09/12 10:04:19;;;;;;;;;;;17.10;99.90;;;;;;5106495;27;19962;-53
2022/09/12 10:07:01;;;;;;;;;;;17.00;99.90;;;;;;5106535;27;19926;-53
2022/09/12 10:09:42;;;;;;;;;;;17.10;99.90;;;;;;5105955;27;19926;-52
2022/09/12 10:12:27;;;;;;;;;;;17.10;99.90;;;;;;5106644;27;19946;-53
2022/09/12 10:15:16;;;;;;;;;;;17.20;99.90;;;;;;5086213;28;20422;-53
2022/09/12 10:17:58;;;;;;;;;;;17.40;99.90;;;;;;5106403;27;19926;-53
2022/09/12 10:20:39;;;;;;;;;;;17.50;99.90;;;;;;5105986;27;20327;-53
2022/09/12 10:23:28;;;;;;;;;;;17.60;99.90;;;;;;5106906;27;19926;-53
2022/09/12 10:26:10;;;;;;;;;;;17.80;99.90;;;;;;5098255;27;20412;-55
2022/09/12 10:28:52;;;;;;;;;;;17.80;99.90;;;;;;5106758;27;19926;-53
2022/09/12 10:31:37;;;;;;;;;;;18.00;99.90;;;;;;5106656;27;19912;-53
2022/09/12 10:34:24;;;;;;;;;;;18.10;99.90;;;;;;5106912;27;19945;-53
2022/09/12 10:37:05;;;;;;;;;;;18.30;99.90;;;;;;5106450;27;19926;-54
2022/09/12 10:39:52;;;;;;;;;;;18.40;99.90;;;;;;5106093;27;20335;-53
2022/09/12 10:42:49;;;;;;;;;;;18.50;99.90;;;;;;5127002;27;19912;-53
2022/09/12 10:45:30;;;;;;;;;;;18.50;99.90;;;;;;5104325;27;20374;-53
2022/09/12 10:48:25;;;;;;;;;;;18.60;99.90;;;;;;5106599;27;19926;-53
2022/09/12 10:51:05;;;;;;;;;;;18.80;99.90;;;;;;5092106;27;20424;-53
2022/09/12 10:53:46;;;;;;;;;;;19.00;99.90;;;;;;5106367;27;20328;-52
2022/09/12 10:56:28;;;;;;;;;;;19.10;99.90;;;;;;5075392;28;20089;-52
2022/09/12 10:59:15;;;;;;;;;;;19.30;99.90;;;;;;5163386;27;19925;-53
2022/09/12 11:01:58;;;;;;;;;;;19.50;99.90;;;;;;5106737;27;19926;-53
2022/09/12 11:04:46;;;;;;;;;;;19.80;99.90;;;;;;5106349;27;19926;-53
2022/09/12 11:07:46;;;;;;;;;;;19.90;99.90;;;;;;5106368;27;19926;-53
2022/09/12 11:10:30;;;;;;;;;;;20.10;99.90;;;;;;5106036;27;20423;-52
2022/09/12 11:13:18;;;;;;;;;;;20.20;99.90;;;;;;5106553;27;19912;-54
2022/09/12 11:16:02;;;;;;;;;;;20.20;99.90;;;;;;5099702;27;19927;-53
2022/09/12 11:18:52;;;;;;;;;;;20.20;99.90;;;;;;5106189;27;19953;-54
2022/09/12 11:21:43;;;;;;;;;;;20.30;99.90;;;;;;5106437;27;19926;-53
2022/09/12 11:24:33;;;;;;;;;;;20.40;99.90;;;;;;5106193;27;20443;-54
2022/09/12 11:27:20;;;;;;;;;;;20.30;99.90;;;;;;5127078;27;19953;-53
2022/09/12 11:30:02;;;;;;;;;;;20.20;99.90;;;;;;5106437;27;19926;-53
2022/09/12 11:32:47;;;;;;;;;;;20.20;99.90;;;;;;5106599;27;20435;-53
2022/09/12 11:35:28;;;;;;;;;;;20.20;99.90;;;;;;5101830;27;19961;-53
2022/09/12 11:38:24;;;;;;;;;;;20.30;99.90;;;;;;5105488;27;20331;-53
2022/09/12 11:41:05;;;;;;;;;;;20.20;99.90;;;;;;5106213;27;20325;-53
2022/09/12 11:43:47;;;;;;;;;;;20.20;99.90;;;;;;5085910;28;19921;-56
2022/09/12 11:46:32;;;;;;;;;;;20.30;99.90;;;;;;5082518;27;19916;-52
2022/09/12 11:49:18;;;;;;;;;;;20.20;99.90;;;;;;5125626;27;19923;-54
2022/09/12 11:52:00;;;;;;;;;;;20.30;99.90;;;;;;5106121;27;20316;-53
2022/09/12 11:54:43;;;;;;;;;;;20.40;99.90;;;;;;5083881;28;20328;-53
2022/09/12 11:57:28;;;;;;;;;;;20.40;99.90;;;;;;5084515;28;19968;-53
2022/09/12 12:00:14;;;;;;;;;;;20.50;99.90;;;;;;5104443;27;19926;-53
2022/09/12 12:02:58;;;;;;;;;;;20.60;99.90;;;;;;5125841;27;19922;-53
2022/09/12 12:05:43;;;;;;;;;;;20.50;99.90;;;;;;5100701;27;20378;-54
2022/09/12 12:08:25;;;;;;;;;;;20.60;99.90;;;;;;5126350;27;19915;-53
2022/09/12 12:11:06;;;;;;;;;;;20.60;99.90;;;;;;5105418;27;20332;-53
2022/09/12 12:13:50;;;;;;;;;;;20.60;99.90;;;;;;5086240;28;19916;-54
2022/09/12 12:16:32;;;;;;;;;;;20.60;99.90;;;;;;5094748;27;20166;-53
2022/09/12 12:19:25;;;;;;;;;;;20.80;99.90;;;;;;5105807;27;19926;-54
2022/09/12 12:22:15;;;;;;;;;;;21.00;99.90;;;;;;5116878;27;19920;-53
2022/09/12 12:25:00;;;;;;;;;;;21.10;99.90;;;;;;5105473;27;20328;-54
2022/09/12 12:27:49;;;;;;;;;;;21.10;99.90;;;;;;5106278;27;19912;-53
2022/09/12 12:30:51;;;;;;;;;;;21.30;99.90;;;;;;5106150;27;19957;-53
2022/09/12 12:33:48;;;;;;;;;;;21.30;99.10;;;;;;5147605;27;19918;-54
2022/09/12 12:36:39;;;;;;;;;;;21.20;99.90;;;;;;5095430;27;19926;-53
2022/09/12 12:39:48;;;;;;;;;;;21.30;98.30;;;;;;5106161;27;19913;-53
2022/09/12 12:43:01;;;;;;;;;;;21.30;96.00;;;;;;5126889;27;19935;-53
2022/09/12 12:45:49;;;;;;;;;;;21.40;99.90;;;;;;5101954;27;19912;-54
2022/09/12 12:48:32;;;;;;;;;;;21.70;99.30;;;;;;5106945;27;19954;-53
2022/09/12 12:51:16;;;;;;;;;;;21.80;93.80;;;;;;5106058;27;19926;-52
2022/09/12 12:53:57;;;;;;;;;;;21.80;92.10;;;;;;5127043;27;19911;-53
2022/09/12 12:56:39;;;;;;;;;;;22.00;91.80;;;;;;5073693;28;19913;-55
2022/09/12 12:59:22;;;;;;;;;;;22.10;99.90;;;;;;5106557;27;19950;-53
2022/09/12 13:02:01;;;;;;;;;;;22.20;88.60;;;;;;5168469;27;19925;-53
2022/09/12 13:04:44;;;;;;;;;;;22.20;83.20;;;;;;5106633;27;19930;-53
2022/09/12 13:07:27;;;;;;;;;;;22.00;80.20;;;;;;5106470;27;20209;-54
2022/09/12 13:10:07;;;;;;;;;;;22.10;83.60;;;;;;5106347;27;19912;-53
2022/09/12 13:12:47;;;;;;;;;;;22.20;85.30;;;;;;5086030;28;19913;-54
2022/09/12 13:15:42;;;;;;;;;;;22.20;77.60;;;;;;5103984;27;20462;-53
2022/09/12 13:18:27;;;;;;;;;;;22.20;78.00;;;;;;5106690;27;19916;-54
2022/09/12 13:21:09;;;;;;;;;;;22.20;75.10;;;;;;5092143;27;19961;-54
2022/09/12 13:24:01;;;;;;;;;;;22.30;84.60;;;;;;5106599;27;19930;-53
2022/09/12 13:26:42;;;;;;;;;;;22.40;78.30;;;;;;5093890;27;19954;-53
2022/09/12 13:29:23;;;;;;;;;;;22.30;77.30;;;;;;5106238;27;19926;-54
2022/09/12 13:32:05;;;;;;;;;;;22.40;78.50;;;;;;5106639;27;19918;-54
2022/09/12 13:34:57;;;;;;;;;;;22.50;92.00;;;;;;5106023;27;19951;-55
2022/09/12 13:37:45;;;;;;;;;;;22.50;75.10;;;;;;5086369;28;19930;-54
2022/09/12 13:40:33;;;;;;;;;;;22.60;76.30;;;;;;5106169;27;19926;-54
2022/09/12 13:43:15;;;;;;;;;;;22.80;72.60;;;;;;5106480;27;19953;-52
2022/09/12 13:45:55;;;;;;;;;;;22.90;72.50;;;;;;5100488;27;19930;-54
2022/09/12 13:48:35;;;;;;;;;;;23.00;74.10;;;;;;5147869;27;19925;-54
2022/09/12 13:51:23;;;;;;;;;;;23.20;70.00;;;;;;5106390;27;20226;-54
2022/09/12 13:54:05;;;;;;;;;;;23.30;70.30;;;;;;5127198;27;19918;-53
2022/09/12 13:56:49;;;;;;;;;;;23.50;74.80;;;;;;5072579;28;19921;-54
2022/09/12 13:59:37;;;;;;;;;;;23.50;64.70;;;;;;5106128;27;19926;-54
2022/09/12 14:02:18;;;;;;;;;;;23.60;64.80;;;;;;5106318;27;19926;-54
2022/09/12 14:05:08;;;;;;;;;;;23.70;67.40;;;;;;5106732;27;20427;-53
2022/09/12 14:07:54;;;;;;;;;;;23.70;64.30;;;;;;5106776;27;19926;-54
2022/09/12 14:10:34;;;;;;;;;;;23.40;67.00;;;;;;5107027;27;19912;-53
2022/09/12 14:13:18;;;;;;;;;;;23.20;66.60;;;;;;5087091;28;19919;-53
2022/09/12 14:15:58;;;;;;;;;;;23.30;63.10;;;;;;5099708;27;19954;-53
2022/09/12 14:18:39;;;;;;;;;;;23.40;60.50;;;;;;5106485;27;20173;-53
2022/09/12 14:21:30;;;;;;;;;;;23.50;59.30;;;;;;5106116;27;19926;-54
2022/09/12 14:24:12;;;;;;;;;;;23.80;60.60;;;;;;5106607;27;19926;-53
2022/09/12 14:26:55;;;;;;;;;;;23.90;59.40;;;;;;5127079;27;19918;-53
2022/09/12 14:29:35;;;;;;;;;;;23.90;58.60;;;;;;5105603;27;19953;-54
2022/09/12 14:32:23;;;;;;;;;;;23.90;60.70;;;;;;5126543;27;20393;-53
2022/09/12 14:35:07;;;;;;;;;;;24.00;65.70;;;;;;5106157;27;20335;-53
2022/09/12 14:37:49;;;;;;;;;;;23.60;65.10;;;;;;5106029;27;19926;-54
2022/09/12 14:40:30;;;;;;;;;;;23.30;67.70;;;;;;5105953;27;19926;-54
2022/09/12 14:43:18;;;;;;;;;;;23.30;64.80;;;;;;5106487;27;19926;-53
2022/09/12 14:46:01;;;;;;;;;;;23.30;69.90;;;;;;5099283;27;19970;-54
2022/09/12 14:48:45;;;;;;;;;;;23.00;64.20;;;;;;5105592;27;19926;-53
2022/09/12 14:51:27;;;;;;;;;;;23.00;59.70;;;;;;5106106;27;19946;-54
2022/09/12 14:54:34;;;;;;;;;;;23.00;58.60;;;;;;5106124;27;19930;-53
2022/09/12 14:57:37;;;;;;;;;;;22.90;65.60;;;;;;5106069;27;19926;-54
2022/09/12 15:00:22;;;;;;;;;;;22.60;60.50;;;;;;5085433;28;19913;-54
2022/09/12 15:03:19;;;;;;;;;;;22.50;72.60;;;;;;5106424;27;20331;-53
2022/09/12 15:06:01;;;;;;;;;;;22.40;70.60;;;;;;5098745;27;19916;-54
2022/09/12 15:08:41;;;;;;;;;;;22.40;86.40;;;;;;5106094;27;19969;-54
2022/09/12 15:11:21;;;;;;;;;;;22.30;89.50;;;;;;5102689;27;20339;-53
2022/09/12 15:14:12;;;;;;;;;;;22.30;90.40;;;;;;5106291;27;20184;-54
2022/09/12 15:16:52;;;;;;;;;;;22.20;92.80;;;;;;5105784;27;20328;-54
2022/09/12 15:19:32;;;;;;;;;;;22.10;93.50;;;;;;5127448;27;20292;-54
2022/09/12 15:22:12;;;;;;;;;;;22.00;97.30;;;;;;5106361;27;19926;-53
2022/09/12 15:24:52;;;;;;;;;;;21.90;96.30;;;;;;5106840;27;20184;-53
2022/09/12 15:27:31;;;;;;;;;;;21.80;92.30;;;;;;5105842;27;19954;-54
2022/09/12 15:30:12;;;;;;;;;;;21.90;87.00;;;;;;5066472;28;20283;-53
2022/09/12 15:32:53;;;;;;;;;;;21.90;92.80;;;;;;5110174;27;19926;-53
2022/09/12 15:35:34;;;;;;;;;;;21.70;93.80;;;;;;5105988;27;20316;-53
2022/09/12 15:38:15;;;;;;;;;;;21.50;96.00;;;;;;5105779;27;19937;-53
2022/09/12 15:40:55;;;;;;;;;;;21.40;98.20;;;;;;5108319;27;19953;-53
2022/09/12 15:43:35;;;;;;;;;;;21.30;93.70;;;;;;5105459;27;20270;-54
2022/09/12 15:46:16;;;;;;;;;;;21.20;99.90;;;;;;5105741;27;19912;-53
2022/09/12 15:48:56;;;;;;;;;;;21.10;99.90;;;;;;5085585;28;19912;-53